Time;durP1;ratioP1;P1;durP2;ratioP2;P2;SDS_P1;SDS_P2;PMS_P1;PMS_P2;Temp;Humidity;BMP_temperature;BMP_pressure;BME280_temperature;BME280_humidity;BME280_pressure;Samples;Min_cycle;Max_cycle;Signal;HPM_P1;HPM_P2
2022/08/17 00:00:24;;;;;;;24.97;22.37;;;21.70;99.90;;;;;;5032583;28;20936;-73
2022/08/17 00:03:08;;;;;;;28.43;25.33;;;21.60;99.90;;;;;;5026836;28;21018;-73
2022/08/17 00:05:39;;;;;;;31.93;28.83;;;21.70;99.90;;;;;;5040539;28;20511;-72
2022/08/17 00:08:06;;;;;;;30.87;27.63;;;21.60;99.90;;;;;;5042491;28;20469;-72
2022/08/17 00:10:33;;;;;;;35.90;29.90;;;21.60;99.90;;;;;;5044213;28;20433;-71
2022/08/17 00:13:05;;;;;;;33.87;30.30;;;21.50;99.90;;;;;;5045468;28;20517;-72
2022/08/17 00:15:32;;;;;;;30.87;27.50;;;21.50;99.90;;;;;;5049447;28;20449;-71
2022/08/17 00:17:59;;;;;;;30.70;27.40;;;21.40;99.90;;;;;;5039652;28;20475;-72
2022/08/17 00:20:28;;;;;;;33.80;28.20;;;21.40;99.90;;;;;;5056636;28;20437;-70
2022/08/17 00:23:16;;;;;;;30.20;27.20;;;21.40;99.90;;;;;;5047006;28;20891;-72
2022/08/17 00:25:44;;;;;;;30.83;27.60;;;21.30;99.90;;;;;;5015683;28;20525;-72
2022/08/17 00:28:13;;;;;;;35.27;29.53;;;21.30;99.90;;;;;;5041523;28;20452;-74
2022/08/17 00:30:40;;;;;;;31.83;28.80;;;21.30;99.90;;;;;;5037743;28;20927;-72
2022/08/17 00:33:10;;;;;;;32.03;28.60;;;21.20;99.90;;;;;;5029575;28;20531;-71
2022/08/17 00:35:40;;;;;;;34.47;30.50;;;21.20;99.90;;;;;;5035788;28;20846;-71
2022/08/17 00:38:09;;;;;;;32.67;29.20;;;21.10;99.90;;;;;;5045851;28;20593;-71
2022/08/17 00:40:37;;;;;;;35.77;31.73;;;21.10;99.90;;;;;;5026088;28;22067;-70
2022/08/17 00:43:15;;;;;;;34.07;30.37;;;21.10;99.90;;;;;;5036876;28;20496;-72
2022/08/17 00:45:42;;;;;;;36.73;33.03;;;21.00;99.90;;;;;;5039794;28;20501;-71
2022/08/17 00:48:10;;;;;;;34.77;31.27;;;21.00;99.90;;;;;;5042628;28;20531;-72
2022/08/17 00:50:41;;;;;;;32.20;28.80;;;21.00;99.90;;;;;;5043328;28;20510;-73
2022/08/17 00:53:09;;;;;;;36.13;32.13;;;21.00;99.90;;;;;;5046185;28;20570;-71
2022/08/17 00:55:36;;;;;;;34.03;29.93;;;21.00;99.90;;;;;;5038149;28;20517;-69
2022/08/17 00:58:05;;;;;;;37.20;33.10;;;21.00;99.90;;;;;;5040767;28;20477;-72
2022/08/17 01:00:36;;;;;;;42.17;33.70;;;20.90;99.90;;;;;;5045320;28;20813;-72
2022/08/17 01:03:08;;;;;;;37.07;33.27;;;20.90;99.90;;;;;;5037854;28;20470;-72
2022/08/17 01:05:37;;;;;;;40.80;36.40;;;20.90;99.90;;;;;;5043118;28;20429;-71
2022/08/17 01:08:08;;;;;;;36.40;32.63;;;20.80;99.90;;;;;;5044164;28;20447;-72
2022/08/17 01:10:39;;;;;;;38.57;34.40;;;20.70;99.90;;;;;;5042107;28;20479;-72
2022/08/17 01:13:06;;;;;;;36.27;32.57;;;20.70;99.90;;;;;;5043865;28;20930;-73
2022/08/17 01:15:37;;;;;;;41.57;34.77;;;20.70;99.90;;;;;;5037116;28;20565;-73
2022/08/17 01:18:05;;;;;;;37.07;33.07;;;20.70;99.90;;;;;;5044113;28;21094;-73
2022/08/17 01:20:32;;;;;;;41.03;32.97;;;20.70;99.90;;;;;;5037451;28;20455;-72
2022/08/17 01:23:02;;;;;;;41.43;37.13;;;20.70;99.90;;;;;;5047078;28;20549;-72
2022/08/17 01:25:29;;;;;;;42.70;34.77;;;20.70;99.90;;;;;;5038233;28;21012;-72
2022/08/17 01:27:56;;;;;;;37.87;33.83;;;20.70;99.90;;;;;;5045805;28;20511;-72
2022/08/17 01:30:23;;;;;;;43.37;33.87;;;20.60;99.90;;;;;;5039083;28;20918;-72
2022/08/17 01:32:50;;;;;;;40.70;36.40;;;20.60;99.90;;;;;;5035707;28;20565;-72
2022/08/17 01:35:17;;;;;;;40.73;35.87;;;20.60;99.90;;;;;;5049157;28;20477;-70
2022/08/17 01:37:44;;;;;;;47.13;38.00;;;20.50;99.90;;;;;;5045965;28;20453;-71
2022/08/17 01:40:21;;;;;;;44.87;38.13;;;20.50;99.90;;;;;;5035551;28;20844;-72
2022/08/17 01:42:54;;;;;;;48.00;37.23;;;20.40;99.90;;;;;;5026277;28;20556;-72
2022/08/17 01:45:24;;;;;;;40.40;35.00;;;20.50;99.90;;;;;;5048556;28;20955;-72
2022/08/17 01:47:52;;;;;;;43.77;38.47;;;20.50;99.90;;;;;;5044408;28;20489;-72
2022/08/17 01:50:23;;;;;;;46.53;40.03;;;20.50;99.90;;;;;;5034023;28;20457;-72
2022/08/17 01:52:56;;;;;;;46.50;39.37;;;20.40;99.90;;;;;;5040934;28;20468;-71
2022/08/17 01:55:32;;;;;;;43.37;36.80;;;20.40;99.90;;;;;;5038115;28;20446;-71
2022/08/17 01:57:59;;;;;;;42.10;35.17;;;20.50;99.90;;;;;;5043676;28;20440;-71
2022/08/17 02:00:27;;;;;;;49.10;39.80;;;20.50;99.90;;;;;;5042913;28;20473;-72
2022/08/17 02:02:54;;;;;;;42.17;37.90;;;20.40;99.90;;;;;;5032391;28;20538;-71
2022/08/17 02:05:23;;;;;;;47.70;41.33;;;20.40;99.90;;;;;;5043593;28;20448;-72
2022/08/17 02:07:51;;;;;;;45.50;38.93;;;20.40;99.90;;;;;;5038903;28;20457;-72
2022/08/17 02:10:18;;;;;;;48.10;42.40;;;20.30;99.90;;;;;;5028012;28;20461;-72
2022/08/17 02:12:47;;;;;;;46.53;37.10;;;20.30;99.90;;;;;;5036996;28;20446;-72
2022/08/17 02:15:14;;;;;;;40.60;36.07;;;20.30;99.90;;;;;;5044609;28;20501;-71
2022/08/17 02:17:41;;;;;;;40.43;36.20;;;20.30;99.90;;;;;;5042616;28;20435;-70
2022/08/17 02:20:10;;;;;;;40.77;36.43;;;20.30;99.90;;;;;;5047741;28;20517;-72
2022/08/17 02:22:40;;;;;;;44.83;40.13;;;20.30;99.90;;;;;;5041420;28;20534;-71
2022/08/17 02:25:09;;;;;;;51.07;42.13;;;20.20;99.90;;;;;;5027766;28;20449;-71
2022/08/17 02:27:39;;;;;;;44.30;39.60;;;20.20;99.90;;;;;;5042490;28;20509;-72
2022/08/17 02:30:11;;;;;;;43.03;37.70;;;20.20;99.90;;;;;;5031075;28;20984;-71
2022/08/17 02:32:39;;;;;;;49.13;39.57;;;20.20;99.90;;;;;;5032126;28;20922;-72
2022/08/17 02:35:13;;;;;;;51.00;44.77;;;20.20;99.90;;;;;;5050294;28;20442;-69
2022/08/17 02:37:41;;;;;;;49.37;42.90;;;20.10;99.90;;;;;;5063356;28;20440;-73
2022/08/17 02:40:27;;;;;;;51.90;41.77;;;20.10;99.90;;;;;;5028620;28;20482;-73
2022/08/17 02:42:54;;;;;;;52.63;42.17;;;20.10;99.90;;;;;;5036596;28;21017;-73
2022/08/17 02:45:37;;;;;;;46.30;39.13;;;20.00;99.90;;;;;;5045480;28;20446;-73
2022/08/17 02:48:04;;;;;;;47.57;40.87;;;20.00;99.90;;;;;;5026422;28;20459;-73
2022/08/17 02:50:31;;;;;;;49.07;42.03;;;20.00;99.90;;;;;;5027694;28;20423;-72
2022/08/17 02:52:58;;;;;;;51.20;43.03;;;20.00;99.90;;;;;;5035788;28;20547;-73
2022/08/17 02:55:28;;;;;;;51.00;40.87;;;20.00;99.90;;;;;;5037506;28;20482;-73
2022/08/17 02:57:55;;;;;;;51.83;45.20;;;20.00;99.90;;;;;;5051276;28;20453;-71
2022/08/17 03:00:33;;;;;;;49.17;41.50;;;20.00;99.90;;;;;;5051016;28;20561;-74
2022/08/17 03:03:02;;;;;;;51.37;43.53;;;20.00;99.90;;;;;;5036878;28;20469;-74
2022/08/17 03:05:33;;;;;;;52.23;46.63;;;20.00;99.90;;;;;;5032368;28;20543;-72
2022/08/17 03:08:00;;;;;;;67.10;49.93;;;19.90;99.90;;;;;;5030303;28;20452;-71
2022/08/17 03:10:28;;;;;;;55.33;48.40;;;19.90;99.90;;;;;;5027644;28;20462;-72
2022/08/17 03:13:15;;;;;;;59.47;46.93;;;19.90;99.90;;;;;;5047554;28;20493;-73
2022/08/17 03:15:44;;;;;;;57.33;48.00;;;19.90;99.90;;;;;;5033779;28;20527;-73
2022/08/17 03:18:14;;;;;;;63.57;49.33;;;19.90;99.90;;;;;;5039652;28;20450;-72
2022/08/17 03:20:42;;;;;;;55.83;45.07;;;19.90;99.90;;;;;;5037353;28;20507;-72
2022/08/17 03:23:10;;;;;;;53.87;47.90;;;19.90;99.90;;;;;;5043649;28;20467;-73
2022/08/17 03:25:41;;;;;;;61.07;50.50;;;19.90;99.90;;;;;;5033338;28;20459;-72
2022/08/17 03:28:09;;;;;;;54.27;44.27;;;19.90;99.90;;;;;;5043608;28;20454;-71
2022/08/17 03:30:36;;;;;;;58.43;45.90;;;19.90;99.90;;;;;;5034020;28;20538;-72
2022/08/17 03:33:05;;;;;;;53.77;46.20;;;19.90;99.90;;;;;;5040336;28;20510;-71
2022/08/17 03:35:35;;;;;;;61.03;51.07;;;19.90;99.90;;;;;;5047270;28;20446;-73
2022/08/17 03:38:02;;;;;;;55.43;48.17;;;19.80;99.90;;;;;;5028930;28;20447;-72
2022/08/17 03:40:30;;;;;;;59.63;51.67;;;19.80;99.90;;;;;;5043253;28;20468;-72
2022/08/17 03:42:57;;;;;;;66.90;55.00;;;19.90;99.90;;;;;;5042009;28;20560;-72
2022/08/17 03:56:42;;;;;;;68.93;55.33;;;19.80;99.90;;;;;;5024122;28;21036;-72
2022/08/17 03:59:10;;;;;;;59.60;51.03;;;19.80;99.90;;;;;;5033533;28;20491;-72
2022/08/17 04:01:37;;;;;;;61.30;51.50;;;19.80;99.90;;;;;;5041092;28;20441;-72
2022/08/17 04:04:04;;;;;;;69.20;58.00;;;19.80;99.90;;;;;;5035045;28;20464;-73
2022/08/17 04:06:37;;;;;;;61.77;54.50;;;19.80;99.90;;;;;;5049806;28;20468;-70
2022/08/17 04:09:04;;;;;;;65.63;53.17;;;19.80;99.90;;;;;;5043834;28;20529;-72
2022/08/17 04:11:39;;;;;;;66.47;54.17;;;19.80;99.90;;;;;;5050374;28;20995;-72
2022/08/17 04:14:06;;;;;;;64.60;54.97;;;19.80;99.90;;;;;;5034209;28;20997;-72
2022/08/17 04:16:40;;;;;;;73.17;56.43;;;19.80;99.90;;;;;;5043358;28;20535;-73
2022/08/17 04:19:07;;;;;;;62.80;55.60;;;19.80;99.90;;;;;;5034052;28;20505;-72
2022/08/17 04:21:34;;;;;;;62.43;55.70;;;19.80;99.90;;;;;;5038623;28;20493;-72
2022/08/17 04:24:03;;;;;;;68.77;59.77;;;19.80;99.90;;;;;;5048753;28;20554;-72
2022/08/17 04:26:31;;;;;;;66.63;54.17;;;19.80;99.90;;;;;;5038501;28;20481;-71
2022/08/17 04:28:58;;;;;;;72.80;54.30;;;19.80;99.90;;;;;;5029773;28;20477;-74
2022/08/17 04:31:27;;;;;;;61.77;54.40;;;19.90;99.90;;;;;;5038003;28;20496;-72
2022/08/17 04:33:54;;;;;;;71.93;56.63;;;19.90;99.90;;;;;;5028628;28;20467;-72
2022/08/17 04:36:21;;;;;;;75.33;60.37;;;19.90;99.90;;;;;;5042243;28;20442;-73
2022/08/17 04:38:48;;;;;;;76.37;59.67;;;19.90;99.90;;;;;;5039723;28;20909;-73
2022/08/17 04:44:03;;;;;;;69.80;57.37;;;20.10;99.90;;;;;;5046330;28;20502;-70
2022/08/17 04:46:33;;;;;;;65.83;55.50;;;20.10;99.90;;;;;;5051195;28;20445;-72
2022/08/17 04:49:02;;;;;;;62.90;56.13;;;20.30;99.90;;;;;;5040800;28;20798;-72
2022/08/17 04:51:30;;;;;;;59.77;52.10;;;20.30;99.90;;;;;;5038307;28;20550;-72
2022/08/17 04:53:59;;;;;;;64.83;56.30;;;20.40;99.90;;;;;;5044341;28;20550;-72
2022/08/17 04:56:29;;;;;;;67.10;58.20;;;20.50;99.90;;;;;;5037230;28;20462;-71
2022/08/17 04:58:58;;;;;;;63.50;56.67;;;20.50;99.90;;;;;;5031235;28;20466;-71
2022/08/17 05:01:27;;;;;;;64.20;56.67;;;20.60;99.90;;;;;;5028896;28;20450;-71
2022/08/17 05:03:57;;;;;;;61.97;53.00;;;20.70;99.90;;;;;;5033692;28;20834;-74
2022/08/17 05:06:26;;;;;;;61.27;54.77;;;20.80;99.90;;;;;;5040119;28;20531;-72
2022/08/17 05:08:53;;;;;;;63.17;54.00;;;20.90;99.90;;;;;;5030632;28;20550;-73
2022/08/17 05:11:20;;;;;;;62.13;55.43;;;21.10;99.90;;;;;;5036114;28;20481;-72
2022/08/17 05:13:50;;;;;;;67.03;59.83;;;21.20;99.90;;;;;;5036105;28;20472;-76
2022/08/17 05:16:18;;;;;;;60.90;54.23;;;21.30;99.90;;;;;;5041274;28;20503;-74
2022/08/17 05:18:47;;;;;;;59.03;49.07;;;21.60;99.90;;;;;;5037061;28;20452;-75
2022/08/17 05:21:15;;;;;;;57.37;50.90;;;22.10;99.90;;;;;;5033082;28;20486;-77
2022/08/17 05:23:43;;;;;;;52.17;46.87;;;22.70;99.90;;;;;;5040749;28;20507;-75
2022/08/17 05:26:12;;;;;;;53.40;47.70;;;23.30;99.90;;;;;;5038180;28;20530;-75
2022/08/17 05:28:39;;;;;;;48.90;43.90;;;23.90;99.90;;;;;;5034361;28;20911;-75
2022/08/17 05:31:07;;;;;;;56.27;44.90;;;24.50;99.90;;;;;;5032648;28;20997;-74
2022/08/17 05:33:39;;;;;;;47.57;41.20;;;24.90;99.90;;;;;;5041970;28;20458;-74
2022/08/17 05:36:08;;;;;;;49.47;44.50;;;25.30;99.90;;;;;;5043837;28;20436;-74
2022/08/17 05:38:39;;;;;;;49.60;44.53;;;25.50;99.90;;;;;;5026725;28;20509;-74
2022/08/17 05:41:08;;;;;;;51.07;45.97;;;25.60;99.90;;;;;;5031829;28;20991;-75
2022/08/17 05:43:37;;;;;;;51.17;45.83;;;25.70;99.90;;;;;;5029915;28;20909;-75
2022/08/17 05:46:10;;;;;;;49.33;44.37;;;25.70;99.90;;;;;;5025920;28;20856;-73
2022/08/17 05:48:41;;;;;;;50.97;45.47;;;25.60;99.90;;;;;;5035713;28;20464;-73
2022/08/17 05:51:38;;;;;;;52.17;47.17;;;25.90;99.90;;;;;;5036343;28;20534;-75
2022/08/17 05:54:27;;;;;;;50.30;44.40;;;26.30;99.90;;;;;;5038085;28;20470;-75
2022/08/17 05:57:08;;;;;;;50.40;45.50;;;26.60;99.90;;;;;;5019797;28;20938;-74
2022/08/17 05:59:48;;;;;;;51.73;46.57;;;26.70;99.90;;;;;;5042490;28;20501;-73
2022/08/17 06:02:24;;;;;;;50.27;45.33;;;26.70;99.90;;;;;;5041498;28;20447;-75
2022/08/17 06:05:09;;;;;;;47.73;42.70;;;26.80;99.90;;;;;;5030519;28;20543;-76
2022/08/17 06:07:45;;;;;;;48.77;43.87;;;26.70;99.90;;;;;;5044028;28;20505;-74
2022/08/17 06:10:17;;;;;;;47.80;42.80;;;26.80;99.90;;;;;;5031140;28;20755;-75
2022/08/17 06:12:59;;;;;;;47.43;42.43;;;26.80;99.90;;;;;;5031920;28;20480;-74
2022/08/17 06:15:31;;;;;;;46.70;41.67;;;26.90;99.90;;;;;;5028846;28;20474;-76
2022/08/17 06:18:03;;;;;;;48.10;43.00;;;26.60;99.90;;;;;;5029501;28;20623;-75
2022/08/17 06:20:40;;;;;;;49.83;44.93;;;26.30;99.90;;;;;;5038521;28;20474;-75
2022/08/17 06:23:13;;;;;;;48.03;42.87;;;26.20;99.90;;;;;;5058472;28;20986;-71
2022/08/17 06:25:47;;;;;;;49.40;44.53;;;25.70;99.90;;;;;;5038650;28;20458;-74
2022/08/17 06:28:18;;;;;;;49.07;44.20;;;25.50;99.90;;;;;;5046398;28;20452;-76
2022/08/17 06:30:49;;;;;;;47.17;42.50;;;25.40;99.90;;;;;;5037378;28;20447;-74
2022/08/17 06:33:25;;;;;;;44.93;40.63;;;25.30;99.90;;;;;;5044599;28;20553;-76
2022/08/17 06:36:01;;;;;;;44.80;40.50;;;25.60;99.90;;;;;;5049427;28;20504;-74
2022/08/17 06:38:40;;;;;;;45.57;41.23;;;25.70;99.90;;;;;;5043529;28;20455;-75
2022/08/17 06:41:17;;;;;;;42.77;38.50;;;25.90;99.90;;;;;;5047645;28;20658;-73
2022/08/17 06:43:56;;;;;;;47.40;42.27;;;26.10;99.90;;;;;;5041555;28;20473;-75
2022/08/17 06:46:29;;;;;;;45.30;40.47;;;26.30;99.90;;;;;;5049454;28;20450;-76
2022/08/17 06:49:11;;;;;;;46.07;41.47;;;26.70;99.90;;;;;;5028061;28;20452;-75
2022/08/17 06:51:40;;;;;;;41.80;37.57;;;27.30;99.90;;;;;;5041352;28;20503;-74
2022/08/17 06:54:14;;;;;;;38.07;34.43;;;27.90;99.90;;;;;;5041927;28;20482;-75
2022/08/17 06:56:52;;;;;;;37.83;34.23;;;28.40;99.90;;;;;;5026033;28;20599;-75
2022/08/17 06:59:24;;;;;;;41.23;36.93;;;29.00;99.10;;;;;;5024527;28;20926;-75
2022/08/17 07:01:55;;;;;;;38.77;34.97;;;29.20;98.00;;;;;;5026380;28;20873;-75
2022/08/17 07:04:29;;;;;;;40.17;36.10;;;29.30;96.90;;;;;;5021695;28;20554;-76
2022/08/17 07:08:00;;;;;;;40.93;36.93;;;29.20;96.60;;;;;;5028390;28;20869;-75
2022/08/17 07:09:50;;;;;;;38.50;34.70;;;28.80;97.00;;;;;;5037425;28;20439;-75
2022/08/17 07:12:21;;;;;;;37.60;33.63;;;28.60;97.50;;;;;;5039161;28;20550;-75
2022/08/17 07:14:52;;;;;;;37.57;33.93;;;28.50;98.20;;;;;;5050648;28;20494;-75
2022/08/17 07:17:22;;;;;;;33.77;30.77;;;28.60;97.80;;;;;;5032709;28;20470;-74
2022/08/17 07:19:56;;;;;;;34.73;31.30;;;28.50;98.20;;;;;;5039987;28;20509;-74
2022/08/17 07:22:34;;;;;;;30.97;28.00;;;28.50;98.00;;;;;;5037529;28;20493;-74
2022/08/17 07:25:04;;;;;;;33.77;30.30;;;28.60;97.70;;;;;;5037585;28;20477;-73
2022/08/17 07:27:36;;;;;;;33.80;30.53;;;28.50;97.80;;;;;;5037331;28;20513;-73
2022/08/17 07:30:07;;;;;;;35.97;32.37;;;28.50;97.80;;;;;;5049025;28;20444;-74
2022/08/17 07:32:37;;;;;;;31.90;28.67;;;28.50;98.20;;;;;;5044654;28;20952;-76
2022/08/17 07:35:13;;;;;;;26.33;23.83;;;28.90;97.60;;;;;;5033425;28;20490;-74
2022/08/17 07:37:43;;;;;;;30.00;27.20;;;29.30;96.70;;;;;;5044699;28;20517;-75
2022/08/17 07:40:17;;;;;;;33.57;30.27;;;29.70;95.60;;;;;;5027462;28;20484;-75
2022/08/17 07:43:05;;;;;;;29.93;27.13;;;30.10;94.50;;;;;;5036015;28;20482;-75
2022/08/17 07:48:37;;;;;;;31.13;27.83;;;30.60;93.80;;;;;;5048501;28;20434;-76
2022/08/17 07:51:19;;;;;;;28.90;26.23;;;30.80;92.90;;;;;;5042575;28;20474;-74
2022/08/17 07:53:46;;;;;;;26.03;23.43;;;30.80;91.90;;;;;;5035810;28;20457;-74
2022/08/17 07:56:36;;;;;;;27.37;24.87;;;31.00;91.90;;;;;;5042733;28;21000;-74
2022/08/17 07:59:09;;;;;;;26.33;23.83;;;30.90;92.00;;;;;;5040319;28;20450;-75
2022/08/17 08:01:36;;;;;;;28.97;26.17;;;31.20;91.60;;;;;;5039685;28;20493;-74
2022/08/17 08:04:26;;;;;;;24.60;22.50;;;31.10;91.70;;;;;;5043355;28;20466;-74
2022/08/17 08:06:57;;;;;;;25.57;23.37;;;31.70;91.20;;;;;;5035506;28;20501;-74
2022/08/17 08:09:37;;;;;;;24.17;22.07;;;32.20;90.40;;;;;;5037697;28;20447;-74
2022/08/17 08:12:32;;;;;;;22.60;20.30;;;33.10;88.20;;;;;;5036532;28;20455;-73
2022/08/17 08:15:03;;;;;;;21.17;19.27;;;33.80;86.50;;;;;;5027769;28;20689;-74
2022/08/17 08:17:35;;;;;;;25.10;22.70;;;35.20;83.30;;;;;;5044368;28;20447;-74
2022/08/17 08:20:09;;;;;;;24.10;21.67;;;35.60;80.10;;;;;;5027764;28;20900;-75
2022/08/17 08:22:46;;;;;;;25.60;23.27;;;36.30;77.70;;;;;;5036758;28;22204;-71
2022/08/17 08:25:26;;;;;;;24.43;22.00;;;36.70;75.60;;;;;;5038392;28;20452;-75
2022/08/17 08:28:13;;;;;;;22.17;19.80;;;36.80;75.40;;;;;;5032240;28;20564;-74
2022/08/17 08:30:46;;;;;;;20.40;18.50;;;37.00;75.20;;;;;;5042945;28;20448;-73
2022/08/17 08:33:27;;;;;;;29.60;26.67;;;37.20;74.00;;;;;;5019359;28;20472;-74
2022/08/17 08:36:03;;;;;;;20.80;19.07;;;37.10;73.60;;;;;;5035022;28;20465;-73
2022/08/17 08:38:39;;;;;;;25.20;23.00;;;37.30;72.60;;;;;;5018948;28;20456;-73
2022/08/17 08:41:22;;;;;;;24.00;22.10;;;36.80;72.70;;;;;;5034590;28;20557;-73
2022/08/17 08:44:02;;;;;;;30.10;27.23;;;36.70;72.90;;;;;;5026090;28;20870;-74
2022/08/17 08:46:36;;;;;;;19.63;17.77;;;36.60;73.70;;;;;;5057405;28;20455;-74
2022/08/17 08:49:32;;;;;;;17.83;16.27;;;36.70;72.70;;;;;;5040034;28;20447;-73
2022/08/17 08:52:01;;;;;;;18.90;17.30;;;37.50;70.90;;;;;;5031582;28;20537;-75
2022/08/17 08:54:37;;;;;;;21.30;19.20;;;37.50;70.60;;;;;;5043342;28;20520;-75
2022/08/17 08:57:17;;;;;;;16.23;15.03;;;37.70;69.40;;;;;;5037881;28;20498;-74
2022/08/17 09:00:12;;;;;;;14.90;13.50;;;38.40;69.20;;;;;;5027209;28;20445;-72
2022/08/17 09:03:34;;;;;;;14.57;13.37;;;38.70;68.30;;;;;;5033607;28;20489;-73
2022/08/17 09:06:35;;;;;;;13.60;12.40;;;39.30;66.00;;;;;;4987748;28;20499;-75
2022/08/17 09:09:12;;;;;;;13.43;12.27;;;39.30;64.30;;;;;;4969573;28;20624;-76
2022/08/17 09:11:48;;;;;;;13.17;11.70;;;39.70;63.30;;;;;;5042083;28;20565;-75
2022/08/17 09:14:19;;;;;;;13.07;12.00;;;39.70;62.80;;;;;;5050615;28;20481;-75
2022/08/17 09:17:01;;;;;;;12.97;11.70;;;39.80;61.40;;;;;;5048026;28;20443;-73
2022/08/17 09:19:33;;;;;;;15.40;14.20;;;39.90;61.50;;;;;;5035755;28;20481;-74
2022/08/17 09:22:06;;;;;;;14.07;12.77;;;38.90;62.10;;;;;;5027834;28;20507;-74
2022/08/17 09:24:39;;;;;;;13.43;12.13;;;37.90;65.00;;;;;;5029768;28;20450;-74
2022/08/17 09:27:14;;;;;;;18.40;13.67;;;37.00;66.40;;;;;;5031083;28;20455;-75
2022/08/17 09:29:47;;;;;;;15.20;13.70;;;36.50;67.30;;;;;;5039001;28;20447;-76
2022/08/17 09:32:18;;;;;;;16.20;14.60;;;36.20;68.40;;;;;;5032130;28;20522;-75
2022/08/17 09:34:51;;;;;;;12.60;11.50;;;36.10;69.40;;;;;;5029228;28;20458;-76
2022/08/17 09:37:25;;;;;;;16.60;9.27;;;36.60;69.30;;;;;;5040271;28;20459;-75
2022/08/17 09:40:04;;;;;;;9.07;8.17;;;37.60;65.20;;;;;;5045786;28;20446;-75
2022/08/17 09:42:46;;;;;;;11.20;8.10;;;39.00;62.10;;;;;;5039206;28;20530;-76
2022/08/17 09:45:29;;;;;;;7.73;7.00;;;39.10;59.30;;;;;;5030880;28;20493;-76
2022/08/17 09:48:03;;;;;;;9.33;7.00;;;39.00;58.10;;;;;;5017796;28;20888;-76
2022/08/17 09:50:38;;;;;;;8.10;7.33;;;38.30;60.10;;;;;;5027189;28;20494;-77
2022/08/17 09:53:05;;;;;;;8.80;7.63;;;38.30;59.70;;;;;;5034577;28;20489;-76
2022/08/17 09:55:47;;;;;;;8.13;7.43;;;37.60;60.00;;;;;;5033989;28;20443;-75
2022/08/17 09:58:24;;;;;;;7.80;7.10;;;37.70;61.40;;;;;;5035923;28;20478;-75
2022/08/17 10:00:57;;;;;;;8.60;6.40;;;37.40;60.40;;;;;;5036504;28;20469;-76
2022/08/17 10:03:38;;;;;;;7.47;6.77;;;37.80;59.70;;;;;;5036964;28;20839;-76
2022/08/17 10:06:11;;;;;;;7.47;6.77;;;37.50;59.40;;;;;;5043236;28;20450;-76
2022/08/17 10:08:44;;;;;;;6.93;6.43;;;37.70;59.40;;;;;;5047173;28;20438;-77
2022/08/17 10:11:22;;;;;;;6.93;6.33;;;37.40;59.70;;;;;;5031294;28;20881;-76
2022/08/17 10:13:55;;;;;;;7.17;6.33;;;37.40;59.80;;;;;;5034861;28;20770;-76
2022/08/17 10:16:34;;;;;;;12.33;6.63;;;37.30;59.40;;;;;;5025058;28;20818;-75
2022/08/17 10:19:10;;;;;;;7.10;6.50;;;37.50;60.00;;;;;;5037869;28;20466;-75
2022/08/17 10:27:15;;;;;;;6.10;5.60;;;37.60;58.30;;;;;;5043984;28;20581;-75
2022/08/17 10:29:50;;;;;;;5.63;5.23;;;37.20;59.10;;;;;;5032446;28;20603;-75
2022/08/17 10:32:26;;;;;;;9.87;7.53;;;36.80;59.70;;;;;;5034984;28;20829;-76
2022/08/17 10:35:14;;;;;;;7.73;5.53;;;36.70;60.20;;;;;;5037955;28;20558;-73
2022/08/17 10:37:53;;;;;;;6.20;5.60;;;36.60;60.20;;;;;;5030015;28;20459;-73
2022/08/17 10:40:33;;;;;;;6.37;5.77;;;36.70;59.50;;;;;;5038506;28;20522;-76
2022/08/17 10:43:10;;;;;;;6.30;5.80;;;36.20;61.10;;;;;;5033208;28;20474;-76
2022/08/17 10:45:51;;;;;;;7.10;6.40;;;36.00;60.60;;;;;;5050114;28;20473;-75
2022/08/17 10:48:31;;;;;;;6.10;5.60;;;35.80;61.60;;;;;;5035211;28;20490;-75
2022/08/17 10:51:06;;;;;;;7.30;6.70;;;35.70;61.30;;;;;;5042390;28;20438;-78
2022/08/17 10:53:53;;;;;;;7.40;5.70;;;35.10;62.60;;;;;;5037958;28;20470;-75
2022/08/17 10:56:39;;;;;;;5.93;5.43;;;34.90;62.20;;;;;;5043732;28;20964;-76
2022/08/17 10:59:06;;;;;;;7.20;5.73;;;34.70;62.50;;;;;;5035280;28;20807;-75
2022/08/17 11:02:03;;;;;;;7.67;6.90;;;34.50;62.80;;;;;;5044921;28;20485;-76
2022/08/17 11:04:50;;;;;;;6.67;6.07;;;34.20;63.60;;;;;;5028479;28;20476;-74
2022/08/17 11:07:30;;;;;;;6.63;5.93;;;34.00;64.20;;;;;;5036612;28;20455;-76
2022/08/17 11:10:25;;;;;;;7.13;6.00;;;33.90;64.10;;;;;;5041463;28;20449;-74
2022/08/17 11:13:00;;;;;;;6.40;5.03;;;33.80;64.60;;;;;;5034107;28;20486;-77
2022/08/17 11:15:40;;;;;;;6.40;5.87;;;33.50;65.70;;;;;;5041176;28;20442;-75
2022/08/17 11:18:28;;;;;;;5.93;5.23;;;33.40;65.20;;;;;;5040120;28;20438;-74
2022/08/17 11:21:26;;;;;;;7.20;6.20;;;33.30;65.10;;;;;;5042922;28;21001;-74
2022/08/17 11:24:20;;;;;;;6.03;5.50;;;33.40;64.90;;;;;;5026759;28;20536;-75
2022/08/17 11:27:03;;;;;;;5.77;5.33;;;33.10;65.50;;;;;;5034903;28;20465;-76
2022/08/17 11:29:35;;;;;;;5.33;4.80;;;33.20;65.20;;;;;;5038521;28;20459;-73
2022/08/17 11:32:10;;;;;;;9.27;5.77;;;33.60;65.30;;;;;;5051315;28;20450;-76
2022/08/17 11:34:39;;;;;;;5.93;5.40;;;33.80;64.20;;;;;;5031753;28;20474;-75
2022/08/17 11:37:42;;;;;;;6.10;5.50;;;33.80;63.10;;;;;;5052220;28;20477;-75
2022/08/17 11:40:36;;;;;;;7.50;4.90;;;33.80;63.10;;;;;;5046440;28;20446;-72
2022/08/17 11:43:26;;;;;;;5.53;5.13;;;33.70;62.20;;;;;;5044022;28;20509;-75
2022/08/17 11:46:07;;;;;;;7.03;5.17;;;33.60;62.50;;;;;;5042024;28;20444;-73
2022/08/17 11:51:53;;;;;;;6.93;5.97;;;33.40;63.20;;;;;;5036395;28;20426;-74
2022/08/17 11:54:45;;;;;;;9.00;5.20;;;33.20;63.80;;;;;;5045918;28;20466;-76
2022/08/17 11:57:49;;;;;;;8.50;5.40;;;33.20;63.70;;;;;;5029322;28;20495;-73
2022/08/17 12:00:48;;;;;;;5.50;4.90;;;33.10;63.40;;;;;;5041270;28;20462;-75
2022/08/17 12:03:25;;;;;;;5.70;5.10;;;32.80;63.40;;;;;;5037573;28;20450;-75
2022/08/17 12:06:02;;;;;;;5.70;5.20;;;32.70;64.10;;;;;;5027267;28;20868;-74
2022/08/17 12:08:32;;;;;;;9.07;5.77;;;32.50;63.30;;;;;;5038491;28;20549;-75
2022/08/17 12:11:06;;;;;;;5.93;5.13;;;32.30;64.60;;;;;;5045153;28;20481;-75
2022/08/17 12:13:42;;;;;;;5.80;5.40;;;32.40;65.10;;;;;;5033206;28;20467;-75
2022/08/17 12:16:14;;;;;;;8.10;7.13;;;32.50;65.40;;;;;;5043512;28;20450;-74
2022/08/17 12:18:49;;;;;;;5.27;4.87;;;32.40;65.10;;;;;;5035286;28;20520;-74
2022/08/17 12:21:31;;;;;;;6.60;5.17;;;32.50;63.90;;;;;;5034531;28;20484;-75
2022/08/17 12:24:10;;;;;;;8.43;4.93;;;32.40;63.00;;;;;;5030978;28;20880;-75
2022/08/17 12:26:37;;;;;;;6.90;5.10;;;32.30;63.20;;;;;;5039999;28;20470;-75
2022/08/17 12:29:06;;;;;;;9.17;6.20;;;32.20;63.50;;;;;;5036212;28;20843;-75
2022/08/17 12:31:35;;;;;;;10.83;6.27;;;32.10;64.00;;;;;;5038817;28;20457;-76
2022/08/17 12:34:04;;;;;;;6.20;5.70;;;32.30;63.90;;;;;;5034061;28;20944;-75
2022/08/17 12:36:32;;;;;;;7.23;5.73;;;32.40;64.40;;;;;;5029174;28;20517;-76
2022/08/17 12:39:07;;;;;;;7.10;5.57;;;32.40;64.30;;;;;;5037660;28;20481;-75
2022/08/17 12:41:39;;;;;;;9.60;5.70;;;32.50;62.70;;;;;;5033566;28;20484;-74
2022/08/17 12:44:13;;;;;;;5.20;4.70;;;32.50;62.60;;;;;;5036511;28;20531;-75
2022/08/17 12:46:50;;;;;;;6.53;5.87;;;32.60;62.40;;;;;;5047241;28;21058;-74
2022/08/17 12:49:24;;;;;;;5.83;5.23;;;32.40;63.00;;;;;;5040002;28;20443;-74
2022/08/17 12:51:56;;;;;;;5.43;5.03;;;32.60;62.40;;;;;;5028727;28;20447;-75
2022/08/17 12:54:32;;;;;;;5.40;5.00;;;32.60;62.10;;;;;;5038086;28;20475;-76
2022/08/17 12:57:05;;;;;;;6.00;5.30;;;32.40;62.70;;;;;;5038148;28;20465;-75
2022/08/17 12:59:32;;;;;;;6.33;5.67;;;32.60;63.00;;;;;;5035226;28;20534;-74
2022/08/17 13:02:00;;;;;;;6.80;5.80;;;32.50;63.30;;;;;;5037485;28;20486;-77
2022/08/17 13:04:28;;;;;;;6.00;5.50;;;32.60;63.50;;;;;;5045046;28;20577;-75
2022/08/17 13:06:57;;;;;;;5.20;4.80;;;32.50;63.50;;;;;;5038688;28;20451;-76
2022/08/17 13:09:29;;;;;;;5.57;5.07;;;32.60;64.30;;;;;;5038091;28;20447;-77
2022/08/17 13:11:59;;;;;;;6.27;5.60;;;32.60;64.00;;;;;;5039343;28;20938;-76
2022/08/17 13:14:27;;;;;;;5.67;5.17;;;32.80;63.70;;;;;;5041200;28;20517;-76
2022/08/17 13:16:58;;;;;;;6.03;5.47;;;32.70;63.50;;;;;;5044947;28;20462;-74
2022/08/17 13:19:28;;;;;;;9.00;6.47;;;32.70;63.50;;;;;;5041220;28;20463;-76
2022/08/17 13:21:58;;;;;;;6.10;5.33;;;32.60;63.60;;;;;;5040035;28;20511;-75
2022/08/17 13:24:29;;;;;;;5.77;5.27;;;32.50;62.80;;;;;;5037243;28;20499;-75
2022/08/17 13:27:06;;;;;;;8.60;5.20;;;32.30;62.60;;;;;;5039878;28;20817;-75
2022/08/17 13:29:37;;;;;;;7.63;6.20;;;32.10;63.00;;;;;;5042091;28;20466;-74
2022/08/17 13:32:31;;;;;;;10.17;5.60;;;31.80;62.70;;;;;;5039029;28;20444;-75